sensor_id;sensor_type;location;lat;lon;timestamp;temperature;humidity
21592;DHT22;10958;50.892;3.992;2023-06-01T00:02:03;16.20;99.90
21592;DHT22;10958;50.892;3.992;2023-06-01T00:04:31;16.20;99.90
21592;DHT22;10958;50.892;3.992;2023-06-01T00:07:00;16.30;99.90
21592;DHT22;10958;50.892;3.992;2023-06-01T00:09:27;16.10;99.90
21592;DHT22;10958;50.892;3.992;2023-06-01T00:11:53;16.10;99.90
21592;DHT22;10958;50.892;3.992;2023-06-01T00:14:19;15.90;99.90
21592;DHT22;10958;50.892;3.992;2023-06-01T00:16:45;15.90;99.90
21592;DHT22;10958;50.892;3.992;2023-06-01T00:19:11;16.00;99.90
21592;DHT22;10958;50.892;3.992;2023-06-01T00:21:36;15.90;99.90
21592;DHT22;10958;50.892;3.992;2023-06-01T00:24:06;16.10;99.90
21592;DHT22;10958;50.892;3.992;2023-06-01T00:26:32;16.00;99.90
21592;DHT22;10958;50.892;3.992;2023-06-01T00:28:59;16.10;99.90
21592;DHT22;10958;50.892;3.992;2023-06-01T00:31:25;15.90;99.90
21592;DHT22;10958;50.892;3.992;2023-06-01T00:33:50;15.90;99.90
21592;DHT22;10958;50.892;3.992;2023-06-01T00:36:20;15.70;99.90
21592;DHT22;10958;50.892;3.992;2023-06-01T00:38:46;15.60;99.90
21592;DHT22;10958;50.892;3.992;2023-06-01T00:41:11;15.60;99.90
21592;DHT22;10958;50.892;3.992;2023-06-01T00:43:37;15.50;99.90
21592;DHT22;10958;50.892;3.992;2023-06-01T00:46:03;15.40;99.90
21592;DHT22;10958;50.892;3.992;2023-06-01T00:48:29;15.50;99.90
21592;DHT22;10958;50.892;3.992;2023-06-01T00:50:55;15.60;99.90
21592;DHT22;10958;50.892;3.992;2023-06-01T00:53:25;15.40;99.90
21592;DHT22;10958;50.892;3.992;2023-06-01T00:55:51;15.20;99.90
21592;DHT22;10958;50.892;3.992;2023-06-01T00:58:17;15.20;99.90
21592;DHT22;10958;50.892;3.992;2023-06-01T01:00:43;15.10;99.90
21592;DHT22;10958;50.892;3.992;2023-06-01T01:03:09;15.20;99.90
21592;DHT22;10958;50.892;3.992;2023-06-01T01:05:37;15.20;99.90
21592;DHT22;10958;50.892;3.992;2023-06-01T01:08:28;15.00;99.90
21592;DHT22;10958;50.892;3.992;2023-06-01T01:14:01;14.70;99.90
21592;DHT22;10958;50.892;3.992;2023-06-01T01:16:34;14.60;99.90
21592;DHT22;10958;50.892;3.992;2023-06-01T01:30:20;14.50;99.90
21592;DHT22;10958;50.892;3.992;2023-06-01T01:32:50;14.60;99.90
21592;DHT22;10958;50.892;3.992;2023-06-01T01:35:17;14.60;99.90
21592;DHT22;10958;50.892;3.992;2023-06-01T01:37:53;14.70;99.90
21592;DHT22;10958;50.892;3.992;2023-06-01T01:40:20;14.70;99.90
21592;DHT22;10958;50.892;3.992;2023-06-01T01:42:46;14.40;99.90
21592;DHT22;10958;50.892;3.992;2023-06-01T01:45:12;14.30;99.90
21592;DHT22;10958;50.892;3.992;2023-06-01T01:48:11;14.20;99.90
21592;DHT22;10958;50.892;3.992;2023-06-01T01:51:22;14.10;99.90
21592;DHT22;10958;50.892;3.992;2023-06-01T01:53:41;14.00;99.90
21592;DHT22;10958;50.892;3.992;2023-06-01T01:56:09;13.90;99.90
21592;DHT22;10958;50.892;3.992;2023-06-01T01:58:37;14.00;99.90
21592;DHT22;10958;50.892;3.992;2023-06-01T02:01:07;14.10;99.90
21592;DHT22;10958;50.892;3.992;2023-06-01T02:03:34;14.10;99.90
21592;DHT22;10958;50.892;3.992;2023-06-01T02:06:00;14.00;99.90
21592;DHT22;10958;50.892;3.992;2023-06-01T02:08:26;13.90;99.90
21592;DHT22;10958;50.892;3.992;2023-06-01T02:10:52;13.70;99.90
21592;DHT22;10958;50.892;3.992;2023-06-01T02:13:17;13.70;99.90
21592;DHT22;10958;50.892;3.992;2023-06-01T02:15:43;13.70;99.90
21592;DHT22;10958;50.892;3.992;2023-06-01T02:18:10;13.80;99.90
21592;DHT22;10958;50.892;3.992;2023-06-01T02:20:36;14.00;99.90
21592;DHT22;10958;50.892;3.992;2023-06-01T02:23:02;14.10;99.90
21592;DHT22;10958;50.892;3.992;2023-06-01T02:25:28;13.90;99.90
21592;DHT22;10958;50.892;3.992;2023-06-01T02:27:54;13.80;99.90
21592;DHT22;10958;50.892;3.992;2023-06-01T02:30:20;13.90;99.90
21592;DHT22;10958;50.892;3.992;2023-06-01T02:32:48;13.80;99.90
21592;DHT22;10958;50.892;3.992;2023-06-01T02:35:15;13.80;99.90
21592;DHT22;10958;50.892;3.992;2023-06-01T02:37:43;13.70;99.90
21592;DHT22;10958;50.892;3.992;2023-06-01T02:40:09;13.70;99.90
21592;DHT22;10958;50.892;3.992;2023-06-01T02:42:40;13.80;99.90
21592;DHT22;10958;50.892;3.992;2023-06-01T02:45:08;13.80;99.90
21592;DHT22;10958;50.892;3.992;2023-06-01T02:47:34;13.80;99.90
21592;DHT22;10958;50.892;3.992;2023-06-01T02:50:02;13.80;99.90
21592;DHT22;10958;50.892;3.992;2023-06-01T02:52:30;13.70;99.90
21592;DHT22;10958;50.892;3.992;2023-06-01T02:54:56;13.60;99.90
21592;DHT22;10958;50.892;3.992;2023-06-01T02:57:22;13.80;99.90
21592;DHT22;10958;50.892;3.992;2023-06-01T02:59:47;13.70;99.90
21592;DHT22;10958;50.892;3.992;2023-06-01T03:02:13;13.60;99.90
21592;DHT22;10958;50.892;3.992;2023-06-01T03:04:39;13.50;99.90
21592;DHT22;10958;50.892;3.992;2023-06-01T03:07:05;13.30;99.90
21592;DHT22;10958;50.892;3.992;2023-06-01T03:09:31;13.40;99.90
21592;DHT22;10958;50.892;3.992;2023-06-01T03:11:57;13.30;99.90
21592;DHT22;10958;50.892;3.992;2023-06-01T03:14:22;13.50;99.90
21592;DHT22;10958;50.892;3.992;2023-06-01T03:16:48;13.50;99.90
21592;DHT22;10958;50.892;3.992;2023-06-01T03:19:14;13.50;99.90
21592;DHT22;10958;50.892;3.992;2023-06-01T03:21:39;13.50;99.90
21592;DHT22;10958;50.892;3.992;2023-06-01T03:24:05;13.50;99.90
21592;DHT22;10958;50.892;3.992;2023-06-01T03:26:34;13.50;99.90
21592;DHT22;10958;50.892;3.992;2023-06-01T03:29:00;13.50;99.90
21592;DHT22;10958;50.892;3.992;2023-06-01T03:31:26;13.30;99.90
21592;DHT22;10958;50.892;3.992;2023-06-01T03:33:52;13.30;99.90
21592;DHT22;10958;50.892;3.992;2023-06-01T03:36:18;13.40;99.90
21592;DHT22;10958;50.892;3.992;2023-06-01T03:38:43;13.60;99.90
21592;DHT22;10958;50.892;3.992;2023-06-01T03:41:09;13.70;99.90
21592;DHT22;10958;50.892;3.992;2023-06-01T03:43:34;13.80;99.90
21592;DHT22;10958;50.892;3.992;2023-06-01T03:46:00;13.70;99.90
21592;DHT22;10958;50.892;3.992;2023-06-01T03:48:26;13.60;99.90
21592;DHT22;10958;50.892;3.992;2023-06-01T03:50:51;13.30;99.90
21592;DHT22;10958;50.892;3.992;2023-06-01T03:53:17;13.40;99.90
21592;DHT22;10958;50.892;3.992;2023-06-01T03:55:43;13.40;99.90
21592;DHT22;10958;50.892;3.992;2023-06-01T03:58:09;13.30;99.90
21592;DHT22;10958;50.892;3.992;2023-06-01T04:00:35;13.30;99.90
21592;DHT22;10958;50.892;3.992;2023-06-01T04:03:02;13.40;99.90
21592;DHT22;10958;50.892;3.992;2023-06-01T04:05:29;13.30;99.90
21592;DHT22;10958;50.892;3.992;2023-06-01T04:07:57;13.30;99.90
21592;DHT22;10958;50.892;3.992;2023-06-01T04:10:23;13.20;99.90
21592;DHT22;10958;50.892;3.992;2023-06-01T04:12:49;13.20;99.90
21592;DHT22;10958;50.892;3.992;2023-06-01T04:15:17;13.20;99.90
21592;DHT22;10958;50.892;3.992;2023-06-01T04:17:44;13.50;99.90
21592;DHT22;10958;50.892;3.992;2023-06-01T04:20:16;13.70;99.90
21592;DHT22;10958;50.892;3.992;2023-06-01T04:22:43;13.80;99.90
21592;DHT22;10958;50.892;3.992;2023-06-01T04:25:11;13.70;99.90
21592;DHT22;10958;50.892;3.992;2023-06-01T04:27:43;13.70;99.90
21592;DHT22;10958;50.892;3.992;2023-06-01T04:30:13;13.60;99.90
21592;DHT22;10958;50.892;3.992;2023-06-01T04:32:39;13.60;99.90
21592;DHT22;10958;50.892;3.992;2023-06-01T04:35:07;13.50;99.90
21592;DHT22;10958;50.892;3.992;2023-06-01T04:37:37;13.30;99.90
21592;DHT22;10958;50.892;3.992;2023-06-01T04:40:08;13.20;99.90
21592;DHT22;10958;50.892;3.992;2023-06-01T04:42:36;13.30;99.90
21592;DHT22;10958;50.892;3.992;2023-06-01T04:45:04;13.40;99.90
21592;DHT22;10958;50.892;3.992;2023-06-01T04:47:34;13.30;99.90
21592;DHT22;10958;50.892;3.992;2023-06-01T04:50:05;13.10;99.90
21592;DHT22;10958;50.892;3.992;2023-06-01T04:52:31;13.10;99.90
21592;DHT22;10958;50.892;3.992;2023-06-01T04:54:56;13.20;99.90
21592;DHT22;10958;50.892;3.992;2023-06-01T04:57:22;13.20;99.90
21592;DHT22;10958;50.892;3.992;2023-06-01T04:59:48;13.20;99.90
21592;DHT22;10958;50.892;3.992;2023-06-01T05:02:15;13.30;99.90
21592;DHT22;10958;50.892;3.992;2023-06-01T05:04:41;13.30;99.90
21592;DHT22;10958;50.892;3.992;2023-06-01T05:07:07;13.30;99.90
21592;DHT22;10958;50.892;3.992;2023-06-01T05:09:35;13.10;99.90
21592;DHT22;10958;50.892;3.992;2023-06-01T05:12:04;13.30;99.90
21592;DHT22;10958;50.892;3.992;2023-06-01T05:14:31;13.40;99.90
21592;DHT22;10958;50.892;3.992;2023-06-01T05:16:58;13.40;99.90
21592;DHT22;10958;50.892;3.992;2023-06-01T05:19:24;13.40;99.90
21592;DHT22;10958;50.892;3.992;2023-06-01T05:21:49;13.20;99.90
21592;DHT22;10958;50.892;3.992;2023-06-01T05:24:16;13.30;99.90
21592;DHT22;10958;50.892;3.992;2023-06-01T05:26:41;13.30;99.90
21592;DHT22;10958;50.892;3.992;2023-06-01T05:29:07;13.30;99.90
21592;DHT22;10958;50.892;3.992;2023-06-01T05:31:34;13.40;99.90
21592;DHT22;10958;50.892;3.992;2023-06-01T05:34:00;13.40;99.90
21592;DHT22;10958;50.892;3.992;2023-06-01T05:36:26;13.40;99.90
21592;DHT22;10958;50.892;3.992;2023-06-01T05:38:52;13.20;99.90
21592;DHT22;10958;50.892;3.992;2023-06-01T05:41:18;13.30;99.90
21592;DHT22;10958;50.892;3.992;2023-06-01T05:43:44;13.40;99.90
21592;DHT22;10958;50.892;3.992;2023-06-01T05:46:10;13.50;99.90
21592;DHT22;10958;50.892;3.992;2023-06-01T05:48:36;13.50;99.90
21592;DHT22;10958;50.892;3.992;2023-06-01T05:51:02;13.30;99.90
21592;DHT22;10958;50.892;3.992;2023-06-01T05:53:27;13.30;99.90
21592;DHT22;10958;50.892;3.992;2023-06-01T05:55:56;13.30;99.90
21592;DHT22;10958;50.892;3.992;2023-06-01T05:58:22;13.50;99.90
21592;DHT22;10958;50.892;3.992;2023-06-01T06:00:48;13.50;99.90
21592;DHT22;10958;50.892;3.992;2023-06-01T06:03:13;13.70;99.90
21592;DHT22;10958;50.892;3.992;2023-06-01T06:05:39;13.90;99.90
21592;DHT22;10958;50.892;3.992;2023-06-01T06:08:05;13.90;99.90
21592;DHT22;10958;50.892;3.992;2023-06-01T06:10:32;13.90;99.90
21592;DHT22;10958;50.892;3.992;2023-06-01T06:12:58;13.90;99.90
21592;DHT22;10958;50.892;3.992;2023-06-01T06:15:23;13.90;99.90
21592;DHT22;10958;50.892;3.992;2023-06-01T06:17:49;14.00;99.90
21592;DHT22;10958;50.892;3.992;2023-06-01T06:20:16;14.10;99.90
21592;DHT22;10958;50.892;3.992;2023-06-01T06:22:42;14.20;99.90
21592;DHT22;10958;50.892;3.992;2023-06-01T06:25:08;14.20;99.90
21592;DHT22;10958;50.892;3.992;2023-06-01T06:27:34;14.30;99.90
21592;DHT22;10958;50.892;3.992;2023-06-01T06:30:00;14.40;99.90
21592;DHT22;10958;50.892;3.992;2023-06-01T06:32:26;14.40;99.90
21592;DHT22;10958;50.892;3.992;2023-06-01T06:34:51;14.60;99.90
21592;DHT22;10958;50.892;3.992;2023-06-01T06:37:17;14.50;99.90
21592;DHT22;10958;50.892;3.992;2023-06-01T06:39:44;14.50;99.90
21592;DHT22;10958;50.892;3.992;2023-06-01T06:42:10;14.60;99.90
21592;DHT22;10958;50.892;3.992;2023-06-01T06:44:36;14.60;99.90
21592;DHT22;10958;50.892;3.992;2023-06-01T06:47:04;14.60;99.90
21592;DHT22;10958;50.892;3.992;2023-06-01T06:49:32;14.80;99.90
21592;DHT22;10958;50.892;3.992;2023-06-01T06:51:57;15.00;99.90
21592;DHT22;10958;50.892;3.992;2023-06-01T06:54:23;15.00;99.90
21592;DHT22;10958;50.892;3.992;2023-06-01T06:56:50;15.10;99.90
21592;DHT22;10958;50.892;3.992;2023-06-01T06:59:18;15.30;99.90
21592;DHT22;10958;50.892;3.992;2023-06-01T07:01:44;15.40;99.90
21592;DHT22;10958;50.892;3.992;2023-06-01T07:04:10;15.50;99.90
21592;DHT22;10958;50.892;3.992;2023-06-01T07:06:36;15.40;99.90
21592;DHT22;10958;50.892;3.992;2023-06-01T07:09:02;15.30;99.90
21592;DHT22;10958;50.892;3.992;2023-06-01T07:11:30;15.30;99.90
21592;DHT22;10958;50.892;3.992;2023-06-01T07:13:58;15.20;99.90
21592;DHT22;10958;50.892;3.992;2023-06-01T07:16:24;15.30;99.90
21592;DHT22;10958;50.892;3.992;2023-06-01T07:18:51;15.10;99.90
21592;DHT22;10958;50.892;3.992;2023-06-01T07:21:17;15.10;99.90
21592;DHT22;10958;50.892;3.992;2023-06-01T07:23:47;15.10;99.90
21592;DHT22;10958;50.892;3.992;2023-06-01T07:26:13;15.40;99.90
21592;DHT22;10958;50.892;3.992;2023-06-01T07:28:42;15.70;99.90
21592;DHT22;10958;50.892;3.992;2023-06-01T07:31:09;15.80;99.90
21592;DHT22;10958;50.892;3.992;2023-06-01T07:33:35;16.30;99.90
21592;DHT22;10958;50.892;3.992;2023-06-01T07:36:02;16.60;99.90
21592;DHT22;10958;50.892;3.992;2023-06-01T07:38:28;16.70;99.90
21592;DHT22;10958;50.892;3.992;2023-06-01T07:41:00;16.60;99.90
21592;DHT22;10958;50.892;3.992;2023-06-01T07:43:26;16.40;99.90
21592;DHT22;10958;50.892;3.992;2023-06-01T07:45:53;16.00;99.90
21592;DHT22;10958;50.892;3.992;2023-06-01T07:48:19;15.70;99.90
21592;DHT22;10958;50.892;3.992;2023-06-01T07:50:45;16.10;99.90
21592;DHT22;10958;50.892;3.992;2023-06-01T07:53:11;16.90;99.90
21592;DHT22;10958;50.892;3.992;2023-06-01T07:55:37;18.00;99.90
21592;DHT22;10958;50.892;3.992;2023-06-01T07:58:03;18.50;99.90
21592;DHT22;10958;50.892;3.992;2023-06-01T08:00:29;18.50;99.90
21592;DHT22;10958;50.892;3.992;2023-06-01T08:02:55;18.40;99.90
21592;DHT22;10958;50.892;3.992;2023-06-01T08:05:23;18.10;99.90
21592;DHT22;10958;50.892;3.992;2023-06-01T08:07:49;17.80;99.90
21592;DHT22;10958;50.892;3.992;2023-06-01T08:10:14;17.80;99.90
21592;DHT22;10958;50.892;3.992;2023-06-01T08:12:41;17.50;99.90
21592;DHT22;10958;50.892;3.992;2023-06-01T08:15:09;17.80;99.90
21592;DHT22;10958;50.892;3.992;2023-06-01T08:17:38;18.20;99.90
21592;DHT22;10958;50.892;3.992;2023-06-01T08:20:05;18.50;99.90
21592;DHT22;10958;50.892;3.992;2023-06-01T08:22:36;18.50;99.90
21592;DHT22;10958;50.892;3.992;2023-06-01T08:25:07;18.70;99.90
21592;DHT22;10958;50.892;3.992;2023-06-01T08:27:33;19.40;99.90
21592;DHT22;10958;50.892;3.992;2023-06-01T08:29:59;19.80;99.90
21592;DHT22;10958;50.892;3.992;2023-06-01T08:32:25;20.10;99.90
21592;DHT22;10958;50.892;3.992;2023-06-01T08:34:51;20.20;99.90
21592;DHT22;10958;50.892;3.992;2023-06-01T08:37:17;20.20;99.90
21592;DHT22;10958;50.892;3.992;2023-06-01T08:39:43;20.90;99.90
21592;DHT22;10958;50.892;3.992;2023-06-01T08:44:53;21.70;99.90
21592;DHT22;10958;50.892;3.992;2023-06-01T08:47:41;22.20;99.90
21592;DHT22;10958;50.892;3.992;2023-06-01T08:50:09;22.30;99.90
21592;DHT22;10958;50.892;3.992;2023-06-01T08:52:36;22.00;99.90
21592;DHT22;10958;50.892;3.992;2023-06-01T08:55:05;22.30;99.90
21592;DHT22;10958;50.892;3.992;2023-06-01T08:57:34;22.20;99.90
21592;DHT22;10958;50.892;3.992;2023-06-01T09:00:02;22.80;99.90
21592;DHT22;10958;50.892;3.992;2023-06-01T09:02:29;22.70;99.90
21592;DHT22;10958;50.892;3.992;2023-06-01T09:04:55;22.40;99.90
21592;DHT22;10958;50.892;3.992;2023-06-01T09:07:22;22.50;99.90
21592;DHT22;10958;50.892;3.992;2023-06-01T09:09:48;23.00;99.90
21592;DHT22;10958;50.892;3.992;2023-06-01T09:12:28;23.30;99.90
21592;DHT22;10958;50.892;3.992;2023-06-01T09:15:12;23.90;99.90
21592;DHT22;10958;50.892;3.992;2023-06-01T09:17:45;24.40;99.90
21592;DHT22;10958;50.892;3.992;2023-06-01T09:20:27;24.60;99.90
21592;DHT22;10958;50.892;3.992;2023-06-01T09:22:54;24.20;99.90
21592;DHT22;10958;50.892;3.992;2023-06-01T09:25:27;23.30;99.90
21592;DHT22;10958;50.892;3.992;2023-06-01T09:27:55;24.00;99.90
21592;DHT22;10958;50.892;3.992;2023-06-01T09:30:38;24.40;99.90
21592;DHT22;10958;50.892;3.992;2023-06-01T09:33:15;24.10;99.90
21592;DHT22;10958;50.892;3.992;2023-06-01T09:35:44;24.50;99.90
21592;DHT22;10958;50.892;3.992;2023-06-01T09:38:11;24.20;99.90
21592;DHT22;10958;50.892;3.992;2023-06-01T09:40:40;24.40;99.90
21592;DHT22;10958;50.892;3.992;2023-06-01T09:43:21;24.40;99.90
21592;DHT22;10958;50.892;3.992;2023-06-01T09:48:30;23.80;99.90
21592;DHT22;10958;50.892;3.992;2023-06-01T09:50:57;23.90;99.90
21592;DHT22;10958;50.892;3.992;2023-06-01T09:53:22;24.30;99.90
21592;DHT22;10958;50.892;3.992;2023-06-01T09:55:59;24.60;99.90
21592;DHT22;10958;50.892;3.992;2023-06-01T09:58:28;24.80;99.90
21592;DHT22;10958;50.892;3.992;2023-06-01T10:00:54;25.00;99.90
21592;DHT22;10958;50.892;3.992;2023-06-01T10:03:21;24.80;99.90
21592;DHT22;10958;50.892;3.992;2023-06-01T10:05:48;24.70;99.90
21592;DHT22;10958;50.892;3.992;2023-06-01T10:08:15;25.00;99.90
21592;DHT22;10958;50.892;3.992;2023-06-01T10:10:48;25.60;99.90
21592;DHT22;10958;50.892;3.992;2023-06-01T10:13:16;24.60;99.90
21592;DHT22;10958;50.892;3.992;2023-06-01T10:15:42;25.10;99.90
21592;DHT22;10958;50.892;3.992;2023-06-01T10:18:08;25.10;99.90
21592;DHT22;10958;50.892;3.992;2023-06-01T10:20:36;25.20;99.90
21592;DHT22;10958;50.892;3.992;2023-06-01T10:23:03;25.00;99.90
21592;DHT22;10958;50.892;3.992;2023-06-01T10:25:49;24.50;99.90
21592;DHT22;10958;50.892;3.992;2023-06-01T10:28:17;24.00;99.90
21592;DHT22;10958;50.892;3.992;2023-06-01T10:30:43;23.60;99.90
21592;DHT22;10958;50.892;3.992;2023-06-01T10:33:11;23.30;99.90
21592;DHT22;10958;50.892;3.992;2023-06-01T10:40:44;22.30;99.90
21592;DHT22;10958;50.892;3.992;2023-06-01T10:43:47;22.30;99.90
21592;DHT22;10958;50.892;3.992;2023-06-01T10:46:38;22.40;99.90
21592;DHT22;10958;50.892;3.992;2023-06-01T10:49:05;22.20;99.90
21592;DHT22;10958;50.892;3.992;2023-06-01T10:51:34;22.30;99.90
21592;DHT22;10958;50.892;3.992;2023-06-01T10:54:31;22.40;99.90
21592;DHT22;10958;50.892;3.992;2023-06-01T10:57:20;22.10;99.90
21592;DHT22;10958;50.892;3.992;2023-06-01T11:05:43;22.20;99.90
21592;DHT22;10958;50.892;3.992;2023-06-01T11:11:01;22.40;99.90
21592;DHT22;10958;50.892;3.992;2023-06-01T11:13:36;22.60;99.90
21592;DHT22;10958;50.892;3.992;2023-06-01T11:18:51;22.50;99.90
21592;DHT22;10958;50.892;3.992;2023-06-01T11:21:28;22.50;99.90
21592;DHT22;10958;50.892;3.992;2023-06-01T11:23:58;22.30;99.90
21592;DHT22;10958;50.892;3.992;2023-06-01T11:26:38;22.50;99.90
21592;DHT22;10958;50.892;3.992;2023-06-01T11:29:09;22.80;99.90
21592;DHT22;10958;50.892;3.992;2023-06-01T11:31:50;22.70;99.90
21592;DHT22;10958;50.892;3.992;2023-06-01T11:36:56;22.30;99.90
21592;DHT22;10958;50.892;3.992;2023-06-01T11:39:25;22.30;99.90
21592;DHT22;10958;50.892;3.992;2023-06-01T11:42:11;22.40;99.90
21592;DHT22;10958;50.892;3.992;2023-06-01T11:44:45;22.30;99.90
21592;DHT22;10958;50.892;3.992;2023-06-01T11:47:12;22.40;99.90
21592;DHT22;10958;50.892;3.992;2023-06-01T11:49:46;22.40;99.90
21592;DHT22;10958;50.892;3.992;2023-06-01T11:52:19;22.50;99.90
21592;DHT22;10958;50.892;3.992;2023-06-01T11:54:46;22.70;99.90
21592;DHT22;10958;50.892;3.992;2023-06-01T11:57:17;22.90;99.90
21592;DHT22;10958;50.892;3.992;2023-06-01T11:59:46;22.80;99.90
21592;DHT22;10958;50.892;3.992;2023-06-01T12:02:26;22.90;99.90
21592;DHT22;10958;50.892;3.992;2023-06-01T12:04:59;22.80;99.90
21592;DHT22;10958;50.892;3.992;2023-06-01T12:07:27;22.70;99.90
21592;DHT22;10958;50.892;3.992;2023-06-01T12:09:55;22.50;99.90
21592;DHT22;10958;50.892;3.992;2023-06-01T12:12:26;22.40;99.90
21592;DHT22;10958;50.892;3.992;2023-06-01T12:14:54;22.50;99.90
21592;DHT22;10958;50.892;3.992;2023-06-01T12:17:21;22.50;99.90
21592;DHT22;10958;50.892;3.992;2023-06-01T12:19:50;22.60;99.90
21592;DHT22;10958;50.892;3.992;2023-06-01T12:22:19;22.60;99.90
21592;DHT22;10958;50.892;3.992;2023-06-01T12:24:45;22.50;99.90
21592;DHT22;10958;50.892;3.992;2023-06-01T12:27:15;22.50;99.90
21592;DHT22;10958;50.892;3.992;2023-06-01T12:29:45;22.40;99.90
21592;DHT22;10958;50.892;3.992;2023-06-01T12:32:13;22.50;99.90
21592;DHT22;10958;50.892;3.992;2023-06-01T12:34:41;22.50;99.90
21592;DHT22;10958;50.892;3.992;2023-06-01T12:37:17;22.60;99.90
21592;DHT22;10958;50.892;3.992;2023-06-01T12:39:54;22.60;99.90
21592;DHT22;10958;50.892;3.992;2023-06-01T12:42:37;22.60;99.90
21592;DHT22;10958;50.892;3.992;2023-06-01T12:45:07;22.70;99.90
21592;DHT22;10958;50.892;3.992;2023-06-01T12:47:42;22.80;99.90
21592;DHT22;10958;50.892;3.992;2023-06-01T12:50:12;22.80;99.90
21592;DHT22;10958;50.892;3.992;2023-06-01T12:52:41;22.80;99.90
21592;DHT22;10958;50.892;3.992;2023-06-01T12:55:10;22.80;99.90
21592;DHT22;10958;50.892;3.992;2023-06-01T12:57:37;22.80;99.90
21592;DHT22;10958;50.892;3.992;2023-06-01T13:00:06;22.70;99.90
21592;DHT22;10958;50.892;3.992;2023-06-01T13:02:32;22.90;99.90
21592;DHT22;10958;50.892;3.992;2023-06-01T13:05:02;22.80;99.90
21592;DHT22;10958;50.892;3.992;2023-06-01T13:07:33;22.90;99.90
21592;DHT22;10958;50.892;3.992;2023-06-01T13:10:06;22.90;99.90
21592;DHT22;10958;50.892;3.992;2023-06-01T13:25:15;22.80;99.90
21592;DHT22;10958;50.892;3.992;2023-06-01T13:27:43;23.00;99.90
21592;DHT22;10958;50.892;3.992;2023-06-01T13:30:12;22.90;99.90
21592;DHT22;10958;50.892;3.992;2023-06-01T13:32:38;23.00;99.90
21592;DHT22;10958;50.892;3.992;2023-06-01T13:35:04;22.90;99.90
21592;DHT22;10958;50.892;3.992;2023-06-01T13:37:31;22.90;99.90
21592;DHT22;10958;50.892;3.992;2023-06-01T13:39:59;22.80;99.90
21592;DHT22;10958;50.892;3.992;2023-06-01T13:42:26;22.80;99.90
21592;DHT22;10958;50.892;3.992;2023-06-01T13:44:51;22.80;99.90
21592;DHT22;10958;50.892;3.992;2023-06-01T13:47:17;22.70;99.90
21592;DHT22;10958;50.892;3.992;2023-06-01T13:49:44;22.60;99.90
21592;DHT22;10958;50.892;3.992;2023-06-01T13:52:12;22.70;99.90
21592;DHT22;10958;50.892;3.992;2023-06-01T13:54:43;22.80;99.90
21592;DHT22;10958;50.892;3.992;2023-06-01T13:57:10;22.70;99.90
21592;DHT22;10958;50.892;3.992;2023-06-01T13:59:36;22.50;99.90
21592;DHT22;10958;50.892;3.992;2023-06-01T14:02:03;22.60;99.90
21592;DHT22;10958;50.892;3.992;2023-06-01T14:04:32;22.70;99.90
21592;DHT22;10958;50.892;3.992;2023-06-01T14:06:58;22.80;99.90
21592;DHT22;10958;50.892;3.992;2023-06-01T14:09:24;22.80;99.90
21592;DHT22;10958;50.892;3.992;2023-06-01T14:11:50;22.70;99.90
21592;DHT22;10958;50.892;3.992;2023-06-01T14:14:16;22.60;99.90
21592;DHT22;10958;50.892;3.992;2023-06-01T14:16:42;22.60;99.90
21592;DHT22;10958;50.892;3.992;2023-06-01T14:19:08;22.70;99.90
21592;DHT22;10958;50.892;3.992;2023-06-01T14:21:38;22.60;99.90
21592;DHT22;10958;50.892;3.992;2023-06-01T14:24:04;22.60;99.90
21592;DHT22;10958;50.892;3.992;2023-06-01T14:26:31;22.70;99.90
21592;DHT22;10958;50.892;3.992;2023-06-01T14:28:57;22.70;99.90
21592;DHT22;10958;50.892;3.992;2023-06-01T14:31:23;22.60;99.90
21592;DHT22;10958;50.892;3.992;2023-06-01T14:33:51;22.60;99.90
21592;DHT22;10958;50.892;3.992;2023-06-01T14:36:17;22.60;99.90
21592;DHT22;10958;50.892;3.992;2023-06-01T14:38:45;22.60;99.90
21592;DHT22;10958;50.892;3.992;2023-06-01T14:41:13;22.70;99.90
21592;DHT22;10958;50.892;3.992;2023-06-01T14:43:41;22.40;99.90
21592;DHT22;10958;50.892;3.992;2023-06-01T14:46:09;22.40;99.90
21592;DHT22;10958;50.892;3.992;2023-06-01T14:48:35;22.40;99.90
21592;DHT22;10958;50.892;3.992;2023-06-01T14:51:03;22.50;99.90
21592;DHT22;10958;50.892;3.992;2023-06-01T14:53:29;22.70;99.90
21592;DHT22;10958;50.892;3.992;2023-06-01T14:56:00;22.50;99.90
21592;DHT22;10958;50.892;3.992;2023-06-01T14:58:29;22.60;99.90
21592;DHT22;10958;50.892;3.992;2023-06-01T15:00:56;22.50;99.90
21592;DHT22;10958;50.892;3.992;2023-06-01T15:03:22;22.50;99.90
21592;DHT22;10958;50.892;3.992;2023-06-01T15:05:47;22.50;99.90
21592;DHT22;10958;50.892;3.992;2023-06-01T15:08:13;22.40;99.90
21592;DHT22;10958;50.892;3.992;2023-06-01T15:10:40;22.20;99.90
21592;DHT22;10958;50.892;3.992;2023-06-01T15:13:05;22.20;99.90
21592;DHT22;10958;50.892;3.992;2023-06-01T15:15:31;22.20;99.90
21592;DHT22;10958;50.892;3.992;2023-06-01T15:17:57;22.30;99.90
21592;DHT22;10958;50.892;3.992;2023-06-01T15:20:23;22.30;99.90
21592;DHT22;10958;50.892;3.992;2023-06-01T15:22:52;22.10;99.90
21592;DHT22;10958;50.892;3.992;2023-06-01T15:25:18;22.00;99.90
21592;DHT22;10958;50.892;3.992;2023-06-01T15:27:44;22.00;99.90
21592;DHT22;10958;50.892;3.992;2023-06-01T15:30:10;21.80;99.90
21592;DHT22;10958;50.892;3.992;2023-06-01T15:32:36;21.70;99.90
21592;DHT22;10958;50.892;3.992;2023-06-01T15:35:01;21.60;99.90
21592;DHT22;10958;50.892;3.992;2023-06-01T15:37:33;21.60;99.90
21592;DHT22;10958;50.892;3.992;2023-06-01T15:39:58;21.60;99.90
21592;DHT22;10958;50.892;3.992;2023-06-01T15:42:30;21.70;99.90
21592;DHT22;10958;50.892;3.992;2023-06-01T15:44:56;21.80;99.90
21592;DHT22;10958;50.892;3.992;2023-06-01T15:47:21;21.80;99.90
21592;DHT22;10958;50.892;3.992;2023-06-01T15:49:50;21.60;99.90
21592;DHT22;10958;50.892;3.992;2023-06-01T15:52:16;21.40;99.90
21592;DHT22;10958;50.892;3.992;2023-06-01T15:54:45;21.40;99.90
21592;DHT22;10958;50.892;3.992;2023-06-01T15:57:15;21.20;99.90
21592;DHT22;10958;50.892;3.992;2023-06-01T15:59:41;21.10;99.90
21592;DHT22;10958;50.892;3.992;2023-06-01T16:02:07;21.00;99.90
21592;DHT22;10958;50.892;3.992;2023-06-01T16:04:35;20.90;99.90
21592;DHT22;10958;50.892;3.992;2023-06-01T16:07:02;20.90;99.90
21592;DHT22;10958;50.892;3.992;2023-06-01T16:09:28;21.00;99.90
21592;DHT22;10958;50.892;3.992;2023-06-01T16:11:54;20.90;99.90
21592;DHT22;10958;50.892;3.992;2023-06-01T16:14:20;20.90;99.90
21592;DHT22;10958;50.892;3.992;2023-06-01T16:16:48;20.70;99.90
21592;DHT22;10958;50.892;3.992;2023-06-01T16:19:16;20.80;99.90
21592;DHT22;10958;50.892;3.992;2023-06-01T16:21:43;20.70;99.90
21592;DHT22;10958;50.892;3.992;2023-06-01T16:24:09;20.50;99.90
21592;DHT22;10958;50.892;3.992;2023-06-01T16:26:35;20.40;99.90
21592;DHT22;10958;50.892;3.992;2023-06-01T16:29:25;20.40;99.90